Terminal Aerodrome Forecast
Issued by NWS

Home | Current Version | Previous Version | Text Only | Print | Product List | Glossary Off
Versions: 1 2 3 4 5 6 7 8 9 10 11 12 13 14

000
FTUS43 KMPX 031506 AAB
TAFRNH
TAF AMD
KRNH 031506Z 0315/0412 00000KT 3/4SM -SN VV005
      TEMPO 0315/0317 1/4SM +SN FZFG VV005
     FM031700 VRB04KT 1 1/2SM -SN BR BKN012 OVC020
     FM031800 29012G20KT 5SM -SN OVC015
     FM032000 31018G27KT P6SM FEW020 BKN090
     FM040300 30012G23KT P6SM SKC
     FM040700 29010KT P6SM SKC=

USA.gov is the U.S. government's official web portal to all federal, state and local government web resources and services.